Terminal Aerodrome Forecast
Issued by NWS

Home | Current Version | Previous Version | Text Only | Print | Product List | Glossary On
Versions: 1 2 3 4 5 6 7 8 9 10 11 12
000
FTUS45 KBOI 181120
TAFMYL
TAF
KMYL 181120Z 1812/1912 30004KT P6SM VCSH SCT030 OVC050
     FM181600 24008KT P6SM BKN050
     FM190300 VRB03KT P6SM SCT050 SCT150=

USA.gov is the U.S. government's official web portal to all federal, state and local government web resources and services.